createdAt,value
2019-05-12T00:07:00.958Z,4.37
2019-05-12T00:11:48.426Z,3.80
2019-05-12T00:17:08.691Z,4.14
2019-05-12T00:21:58.696Z,4.64
2019-05-12T00:27:04.368Z,4.63
2019-05-12T00:32:28.068Z,5.06
2019-05-12T00:37:13.004Z,4.65
2019-05-12T00:47:21.309Z,4.52
2019-05-12T00:52:29.617Z,4.23
2019-05-12T00:57:51.138Z,4.42
2019-05-12T01:02:39.309Z,5.49
2019-05-12T01:07:48.176Z,4.68
2019-05-12T01:18:09.468Z,4.78
2019-05-12T01:22:55.046Z,4.69
2019-05-12T01:28:15.491Z,4.71
2019-05-12T01:43:10.591Z,6.74
2019-05-12T01:48:30.998Z,6.19
2019-05-12T01:53:19.188Z,5.75
2019-05-12T01:58:39.717Z,6.55
2019-05-12T02:03:28.422Z,7.06
2019-05-12T02:08:47.815Z,5.66
2019-05-12T02:13:48.582Z,5.52
2019-05-12T02:28:39.296Z,7.20
2019-05-12T02:33:44.717Z,6.30
2019-05-12T02:39:05.370Z,6.94
2019-05-12T02:43:55.148Z,6.94
2019-05-12T02:48:59.685Z,7.31
2019-05-12T02:54:19.962Z,6.67
2019-05-12T02:59:20.180Z,6.87
2019-05-12T03:04:20.395Z,7.43
2019-05-12T03:09:20.481Z,7.08
2019-05-12T03:14:08.905Z,6.78
2019-05-12T03:19:29.071Z,7.87
2019-05-12T03:24:30.211Z,7.28
2019-05-12T03:34:21.394Z,7.24
2019-05-12T03:39:28.805Z,8.41
2019-05-12T03:49:49.978Z,8.48
2019-05-12T03:54:37.296Z,7.99
2019-05-12T03:59:58.401Z,8.49
2019-05-12T04:04:46.801Z,8.15
2019-05-12T04:09:54.847Z,9.59
2019-05-12T04:15:15.228Z,8.57
2019-05-12T04:20:05.027Z,9.85
2019-05-12T04:25:05.553Z,8.19
2019-05-12T04:30:09.392Z,8.55
2019-05-12T04:35:17.735Z,8.77
2019-05-12T04:40:25.064Z,9.30
2019-05-12T04:45:45.521Z,10.58
2019-05-12T04:50:45.465Z,10.24
2019-05-12T04:55:45.530Z,10.89
2019-05-12T05:00:46.764Z,10.13
2019-05-12T05:05:36.405Z,11.34
2019-05-12T05:10:56.608Z,11.50
2019-05-12T05:15:56.699Z,10.89
2019-05-12T05:20:58.060Z,12.29
2019-05-12T05:25:58.497Z,11.39
2019-05-12T05:30:58.822Z,12.91
2019-05-12T05:35:46.110Z,13.12
2019-05-12T05:40:54.821Z,13.69
2019-05-12T05:46:07.599Z,18.03
2019-05-12T05:51:23.866Z,15.75
2019-05-12T05:56:10.983Z,15.08
2019-05-12T06:01:34.522Z,16.86
2019-05-12T06:06:34.196Z,13.24
2019-05-12T06:16:40.680Z,15.35
2019-05-12T06:21:40.963Z,14.68
2019-05-12T06:26:54.614Z,16.68
2019-05-12T06:31:44.119Z,16.96
2019-05-12T06:36:44.110Z,13.54
2019-05-12T06:41:44.397Z,12.64
2019-05-12T06:46:30.288Z,13.05
2019-05-12T06:51:38.621Z,12.81
2019-05-12T06:57:18.611Z,12.31
2019-05-12T07:02:00.490Z,8.67
2019-05-12T07:07:00.647Z,8.49
2019-05-12T07:12:03.790Z,8.50
2019-05-12T07:17:01.718Z,7.67
2019-05-12T07:22:00.278Z,7.44
2019-05-12T07:27:04.496Z,7.17
2019-05-12T07:31:47.528Z,6.89
2019-05-12T07:36:54.715Z,6.21
2019-05-12T07:42:03.636Z,5.34
2019-05-12T07:47:25.291Z,5.75
2019-05-12T07:52:24.571Z,5.16
2019-05-12T08:02:23.205Z,3.34
2019-05-12T08:22:34.617Z,2.29
2019-05-12T08:28:10.139Z,1.95
2019-05-12T08:33:02.505Z,1.76
2019-05-12T08:37:56.024Z,1.84
2019-05-12T08:42:59.365Z,2.15
2019-05-12T08:53:00.756Z,1.63
2019-05-12T08:57:49.671Z,1.65
2019-05-12T09:03:09.484Z,1.37
2019-05-12T09:08:09.723Z,1.27
2019-05-12T09:13:09.994Z,1.22
2019-05-12T09:17:58.225Z,1.12
2019-05-12T09:23:19.444Z,1.07
2019-05-12T09:28:23.852Z,0.90
2019-05-12T09:33:09.716Z,1.63
2019-05-12T09:38:29.940Z,1.22
2019-05-12T09:43:17.914Z,0.97
2019-05-12T09:48:39.062Z,0.93
2019-05-12T09:53:25.608Z,0.86
2019-05-12T10:03:49.849Z,0.85
2019-05-12T10:08:50.069Z,1.12
2019-05-12T10:13:37.574Z,0.86
2019-05-12T10:18:57.778Z,1.01
2019-05-12T10:24:01.880Z,0.84
2019-05-12T10:28:58.487Z,0.78
2019-05-12T10:33:58.456Z,0.98
2019-05-12T10:38:46.940Z,1.14
2019-05-12T10:54:09.150Z,0.78
2019-05-12T10:59:32.212Z,0.96
2019-05-12T11:04:35.302Z,1.03
2019-05-12T11:09:27.404Z,1.33
2019-05-12T11:14:26.546Z,1.24
2019-05-12T11:19:25.368Z,1.28
2019-05-12T11:24:25.844Z,1.25
2019-05-12T11:29:26.112Z,1.08
2019-05-12T11:34:26.478Z,1.00
2019-05-12T11:39:30.723Z,1.33
2019-05-12T11:44:14.374Z,0.93
2019-05-12T11:49:34.860Z,1.01
2019-05-12T11:54:24.296Z,0.85
2019-05-12T11:59:43.459Z,1.16
2019-05-12T12:04:30.035Z,0.94
2019-05-12T12:09:40.658Z,0.79
2019-05-12T12:25:10.827Z,0.66
2019-05-12T12:29:56.480Z,0.69
2019-05-12T12:40:07.737Z,0.89
2019-05-12T12:45:15.801Z,0.72
2019-05-12T12:50:35.926Z,0.94
2019-05-12T12:55:24.688Z,0.91
2019-05-12T13:00:46.674Z,0.77
2019-05-12T13:05:47.514Z,0.89
2019-05-12T13:10:51.339Z,0.82
2019-05-12T13:15:48.973Z,0.61
2019-05-12T13:20:49.066Z,0.72
2019-05-12T13:25:39.000Z,0.87
2019-05-12T13:31:08.335Z,0.75
2019-05-12T13:35:58.279Z,0.80
2019-05-12T13:40:45.602Z,0.95
2019-05-12T13:46:06.069Z,0.77
2019-05-12T13:51:07.500Z,0.83
2019-05-12T13:56:04.648Z,0.69
2019-05-12T14:01:24.688Z,0.66
2019-05-12T14:06:13.911Z,0.68
2019-05-12T14:16:23.835Z,0.53
2019-05-12T14:21:43.229Z,0.49
2019-05-12T14:26:47.636Z,0.51
2019-05-12T14:31:36.271Z,0.46
2019-05-12T14:41:52.898Z,0.44
2019-05-12T14:46:50.888Z,0.36
2019-05-12T14:52:16.099Z,0.48
2019-05-12T14:57:03.677Z,0.54
2019-05-12T15:02:10.741Z,0.50
2019-05-12T15:07:24.240Z,0.47
2019-05-12T15:12:34.572Z,0.60
2019-05-12T15:17:22.832Z,0.53
2019-05-12T15:22:50.934Z,0.52
2019-05-12T15:27:45.249Z,0.47
2019-05-12T15:32:42.885Z,0.69
2019-05-12T15:37:35.095Z,0.64
2019-05-12T15:42:55.141Z,0.59
2019-05-12T15:52:44.899Z,0.63
2019-05-12T15:58:05.535Z,0.79
2019-05-12T16:02:49.884Z,0.62
2019-05-12T16:08:11.209Z,0.63
2019-05-12T16:13:15.526Z,0.70
2019-05-12T16:23:06.200Z,1.02
2019-05-12T16:28:26.789Z,0.59
2019-05-12T16:33:20.277Z,0.71
2019-05-12T16:38:24.535Z,0.58
2019-05-12T16:43:35.008Z,0.71
2019-05-12T16:53:56.760Z,0.76
2019-05-12T17:09:05.910Z,0.76
2019-05-12T17:14:06.208Z,0.77
2019-05-12T17:23:58.669Z,0.82
2019-05-12T17:29:20.033Z,0.80
2019-05-12T17:34:10.115Z,0.66
2019-05-12T17:39:29.348Z,0.77
2019-05-12T17:44:16.489Z,0.62
2019-05-12T17:49:30.487Z,0.94
2019-05-12T17:54:44.343Z,0.62
2019-05-12T17:59:33.322Z,0.67
2019-05-12T18:09:50.441Z,0.79
2019-05-12T18:15:08.111Z,0.62
2019-05-12T18:20:08.774Z,0.71
2019-05-12T18:35:04.079Z,0.77
2019-05-12T18:40:24.146Z,0.70
2019-05-12T18:45:23.999Z,0.60
2019-05-12T18:50:10.780Z,0.62
2019-05-12T18:55:20.515Z,0.85
2019-05-12T19:05:36.390Z,0.79
2019-05-12T19:15:37.920Z,1.39
2019-05-12T19:20:25.524Z,1.42
2019-05-12T19:25:46.694Z,1.07
2019-05-12T19:30:34.487Z,1.47
2019-05-12T19:41:00.723Z,2.85
2019-05-12T19:55:54.572Z,2.94
2019-05-12T20:01:14.878Z,2.53
2019-05-12T20:06:16.182Z,2.07
2019-05-12T20:11:20.081Z,2.04
2019-05-12T20:31:27.128Z,1.36
2019-05-12T20:41:26.846Z,1.80
2019-05-12T20:46:26.255Z,2.57
2019-05-12T20:56:21.636Z,2.48
2019-05-12T21:01:38.965Z,2.58
2019-05-12T21:11:33.927Z,2.34
2019-05-12T21:21:59.367Z,2.50
2019-05-12T21:27:00.806Z,2.64
2019-05-12T21:31:48.341Z,4.05
2019-05-12T21:37:08.774Z,3.59
2019-05-12T21:42:10.148Z,3.22
2019-05-12T21:52:06.642Z,3.20
2019-05-12T21:57:14.209Z,3.26
2019-05-12T22:02:14.685Z,3.12
2019-05-12T22:07:38.031Z,3.12
2019-05-12T22:17:25.942Z,3.65
2019-05-12T22:22:34.614Z,3.76
2019-05-12T22:27:43.068Z,3.93
2019-05-12T22:33:08.306Z,3.52
2019-05-12T22:38:15.102Z,4.89
2019-05-12T22:42:57.030Z,3.90
2019-05-12T22:48:12.441Z,4.08
2019-05-12T22:58:22.200Z,3.11
2019-05-12T23:03:17.895Z,3.51
2019-05-12T23:13:23.791Z,3.17
2019-05-12T23:28:18.190Z,2.97
2019-05-12T23:43:47.254Z,2.48
2019-05-12T23:53:51.602Z,2.95
2019-05-12T23:58:53.850Z,3.28
